Raven — WDI2989 — position and weather

sailwx.info

Track history (hours):
 
Tides and Currents Weather Stations Pressure Air Temp Water Temp Dewpoint Dewpoint Depression Visibility Wind Speed Wind Dir Waves Ship Positions

Raven

Owner: So. Cal. Ship Services, Long Beach, CA. More information available from US FCC via Universal Licensing System and Coast Guard Vessel Documentation Center.

Last reported at 2018-Feb-15 21:46 UTC. Time now 2018-Feb-24 18:06 UTC.
Position N 33°44' W 118°16'.
Warning: this ship's position is 8 days out of date.

Length 23 m; draft 2 m.

Type: . MMSI: 367683830.

Date/timePositionNaut miles runAvg speedWind from/ knotsBaromVisibWave heightAir tempDewpointWater temp
2018-Feb-15 21:46N 33°44' W 118°16'0 0.0
2018-Feb-15 21:29N 33°44' W 118°16'  
2018-Feb-13 08:02N 33°44' W 118°16'0 0.2
2018-Feb-13 08:00N 33°44' W 118°16'3 6.7
2018-Feb-13 07:29N 33°42' W 118°13'3 0.1
2018-Feb-12 02:33N 33°44' W 118°16'0 0.7
2018-Feb-12 02:30N 33°44' W 118°16'3 6.0
2018-Feb-12 02:01N 33°44' W 118°13'3 6.0
2018-Feb-12 01:30N 33°44' W 118°16'0 0.1
2018-Feb-12 01:00N 33°44' W 118°16'0 0.0
2018-Feb-11 18:37N 33°44' W 118°16'0 2.8
2018-Feb-11 18:30N 33°44' W 118°16'3 5.1
2018-Feb-11 17:57N 33°44' W 118°13'3 5.8
2018-Feb-11 17:31N 33°43' W 118°16'1 0.0
2018-Feb-10 07:38N 33°44' W 118°16'0 0.0
2018-Feb-10 03:45N 33°44' W 118°16'2 7.5
2018-Feb-10 03:30N 33°43' W 118°14'3 2.4
2018-Feb-10 02:21N 33°44' W 118°11'410.8
2018-Feb-10 02:00N 33°43' W 118°16'1 2.5
2018-Feb-10 01:31N 33°44' W 118°16'0 0.0
2018-Feb-10 01:00N 33°44' W 118°16'0 0.0
2018-Feb-10 00:31N 33°44' W 118°16'0 0.1
2018-Feb-10 00:00N 33°44' W 118°16'0 0.1
2018-Feb-09 23:31N 33°44' W 118°16'0 0.0
2018-Feb-09 23:00N 33°44' W 118°16'0 0.0
2018-Feb-09 22:46N 33°44' W 118°16'0 0.0
2018-Feb-09 22:31N 33°44' W 118°16'0 0.1
2018-Feb-09 18:31N 33°44' W 118°16'0 0.8
2018-Feb-09 18:00N 33°44' W 118°16'5 5.4
2018-Feb-09 17:00N 33°44' W 118°10'5 0.1
2018-Feb-08 01:28N 33°44' W 118°16'0 0.1
2018-Feb-07 22:55N 33°44' W 118°16'512.3
2018-Feb-07 22:31N 33°40' W 118°12'2 4.8
2018-Feb-07 22:01N 33°42' W 118°15'2 0.1
2018-Feb-06 21:50N 33°44' W 118°16'3 9.6
2018-Feb-06 21:30N 33°43' W 118°13'4 8.6
2018-Feb-06 20:59N 33°41' W 118°08'3 5.8
2018-Feb-06 20:30N 33°43' W 118°11'5 9.7
2018-Feb-06 20:00N 33°44' W 118°16'0 0.1
2018-Feb-06 19:20N 33°44' W 118°16'7 8.9
2018-Feb-06 18:30N 33°41' W 118°08'0 0.2
2018-Feb-06 17:59N 33°41' W 118°08'0 0.0
2018-Feb-06 17:30N 33°41' W 118°08'3 5.6
2018-Feb-06 17:00N 33°43' W 118°11'5 9.8
2018-Feb-06 16:30N 33°44' W 118°16'0 0.0
2018-Feb-06 00:04N 33°44' W 118°16'0 0.6
2018-Feb-06 00:00N 33°44' W 118°16'3 6.8
2018-Feb-05 23:30N 33°44' W 118°12'2 3.2
2018-Feb-05 22:57N 33°46' W 118°12'0 0.0
2018-Feb-05 22:30N 33°46' W 118°12'0 0.0
2018-Feb-05 22:00N 33°46' W 118°12'  
Track history (hours):
 
Tides and Currents Weather Stations Pressure Air Temp Water Temp Dewpoint Dewpoint Depression Visibility Wind Speed Wind Dir Waves Ship Positions

Raven

Owner: So. Cal. Ship Services, Long Beach, CA. More information available from US FCC via Universal Licensing System and Coast Guard Vessel Documentation Center.

Last reported at 2018-Feb-15 21:46 UTC. Time now 2018-Feb-24 18:06 UTC.
Position N 33°44' W 118°16'.
Warning: this ship's position is 8 days out of date.

Length 23 m; draft 2 m.

Type: . MMSI: 367683830.

Date/timePositionNaut miles runAvg speedWind from/ knotsBaromVisibWave heightAir tempDewpointWater temp
2018-Feb-15 21:46N 33°44' W 118°16'0 0.0
2018-Feb-15 21:29N 33°44' W 118°16'  
2018-Feb-13 08:02N 33°44' W 118°16'0 0.2
2018-Feb-13 08:00N 33°44' W 118°16'3 6.7
2018-Feb-13 07:29N 33°42' W 118°13'3 0.1
2018-Feb-12 02:33N 33°44' W 118°16'0 0.7
2018-Feb-12 02:30N 33°44' W 118°16'3 6.0
2018-Feb-12 02:01N 33°44' W 118°13'3 6.0
2018-Feb-12 01:30N 33°44' W 118°16'0 0.1
2018-Feb-12 01:00N 33°44' W 118°16'0 0.0
2018-Feb-11 18:37N 33°44' W 118°16'0 2.8
2018-Feb-11 18:30N 33°44' W 118°16'3 5.1
2018-Feb-11 17:57N 33°44' W 118°13'3 5.8
2018-Feb-11 17:31N 33°43' W 118°16'1 0.0
2018-Feb-10 07:38N 33°44' W 118°16'0 0.0
2018-Feb-10 03:45N 33°44' W 118°16'2 7.5
2018-Feb-10 03:30N 33°43' W 118°14'3 2.4
2018-Feb-10 02:21N 33°44' W 118°11'410.8
2018-Feb-10 02:00N 33°43' W 118°16'1 2.5
2018-Feb-10 01:31N 33°44' W 118°16'0 0.0
2018-Feb-10 01:00N 33°44' W 118°16'0 0.0
2018-Feb-10 00:31N 33°44' W 118°16'0 0.1
2018-Feb-10 00:00N 33°44' W 118°16'0 0.1
2018-Feb-09 23:31N 33°44' W 118°16'0 0.0
2018-Feb-09 23:00N 33°44' W 118°16'0 0.0
2018-Feb-09 22:46N 33°44' W 118°16'0 0.0
2018-Feb-09 22:31N 33°44' W 118°16'0 0.1
2018-Feb-09 18:31N 33°44' W 118°16'0 0.8
2018-Feb-09 18:00N 33°44' W 118°16'5 5.4
2018-Feb-09 17:00N 33°44' W 118°10'5 0.1
2018-Feb-08 01:28N 33°44' W 118°16'0 0.1
2018-Feb-07 22:55N 33°44' W 118°16'512.3
2018-Feb-07 22:31N 33°40' W 118°12'2 4.8
2018-Feb-07 22:01N 33°42' W 118°15'2 0.1
2018-Feb-06 21:50N 33°44' W 118°16'3 9.6
2018-Feb-06 21:30N 33°43' W 118°13'4 8.6
2018-Feb-06 20:59N 33°41' W 118°08'3 5.8
2018-Feb-06 20:30N 33°43' W 118°11'5 9.7
2018-Feb-06 20:00N 33°44' W 118°16'0 0.1
2018-Feb-06 19:20N 33°44' W 118°16'7 8.9
2018-Feb-06 18:30N 33°41' W 118°08'0 0.2
2018-Feb-06 17:59N 33°41' W 118°08'0 0.0
2018-Feb-06 17:30N 33°41' W 118°08'3 5.6
2018-Feb-06 17:00N 33°43' W 118°11'5 9.8
2018-Feb-06 16:30N 33°44' W 118°16'0 0.0
2018-Feb-06 00:04N 33°44' W 118°16'0 0.6
2018-Feb-06 00:00N 33°44' W 118°16'3 6.8
2018-Feb-05 23:30N 33°44' W 118°12'2 3.2
2018-Feb-05 22:57N 33°46' W 118°12'0 0.0
2018-Feb-05 22:30N 33°46' W 118°12'0 0.0
2018-Feb-05 22:00N 33°46' W 118°12'  

Dump ship's entire track history